sensor_id;sensor_type;location;lat;lon;timestamp;P1;durP1;ratioP1;P2;durP2;ratioP2
37527;SDS011;23372;52.050;4.810;2023-03-26T00:00:27;12.33;;;3.70;;
37527;SDS011;23372;52.050;4.810;2023-03-26T00:02:53;16.37;;;3.77;;
37527;SDS011;23372;52.050;4.810;2023-03-26T00:05:18;22.57;;;3.93;;
37527;SDS011;23372;52.050;4.810;2023-03-26T00:07:45;21.47;;;4.70;;
37527;SDS011;23372;52.050;4.810;2023-03-26T00:10:11;20.33;;;3.83;;
37527;SDS011;23372;52.050;4.810;2023-03-26T00:12:36;20.47;;;4.63;;
37527;SDS011;23372;52.050;4.810;2023-03-26T00:15:02;21.80;;;4.17;;
37527;SDS011;23372;52.050;4.810;2023-03-26T00:17:28;23.13;;;4.33;;
37527;SDS011;23372;52.050;4.810;2023-03-26T00:19:54;26.83;;;4.90;;
37527;SDS011;23372;52.050;4.810;2023-03-26T00:22:21;25.63;;;4.67;;
37527;SDS011;23372;52.050;4.810;2023-03-26T00:24:47;26.47;;;4.53;;
37527;SDS011;23372;52.050;4.810;2023-03-26T00:27:15;27.60;;;4.43;;
37527;SDS011;23372;52.050;4.810;2023-03-26T00:29:41;26.80;;;4.13;;
37527;SDS011;23372;52.050;4.810;2023-03-26T00:32:07;37.30;;;5.23;;
37527;SDS011;23372;52.050;4.810;2023-03-26T00:34:32;27.60;;;6.00;;
37527;SDS011;23372;52.050;4.810;2023-03-26T00:36:59;32.20;;;5.00;;
37527;SDS011;23372;52.050;4.810;2023-03-26T00:39:27;30.43;;;4.90;;
37527;SDS011;23372;52.050;4.810;2023-03-26T00:41:53;33.90;;;5.63;;
37527;SDS011;23372;52.050;4.810;2023-03-26T00:44:19;29.93;;;5.20;;
37527;SDS011;23372;52.050;4.810;2023-03-26T00:46:45;42.30;;;5.70;;
37527;SDS011;23372;52.050;4.810;2023-03-26T00:49:11;44.67;;;6.93;;
37527;SDS011;23372;52.050;4.810;2023-03-26T00:51:38;34.43;;;6.13;;
37527;SDS011;23372;52.050;4.810;2023-03-26T00:54:05;41.93;;;8.33;;
37527;SDS011;23372;52.050;4.810;2023-03-26T00:56:32;34.00;;;6.43;;
37527;SDS011;23372;52.050;4.810;2023-03-26T00:58:58;38.70;;;5.37;;
37527;SDS011;23372;52.050;4.810;2023-03-26T01:01:24;49.63;;;7.07;;
37527;SDS011;23372;52.050;4.810;2023-03-26T01:03:51;36.13;;;7.90;;
37527;SDS011;23372;52.050;4.810;2023-03-26T01:08:51;41.17;;;6.37;;
37527;SDS011;23372;52.050;4.810;2023-03-26T01:11:19;42.73;;;7.73;;
37527;SDS011;23372;52.050;4.810;2023-03-26T01:14:07;38.50;;;6.40;;
37527;SDS011;23372;52.050;4.810;2023-03-26T01:16:37;37.37;;;8.13;;
37527;SDS011;23372;52.050;4.810;2023-03-26T01:19:06;37.80;;;7.50;;
37527;SDS011;23372;52.050;4.810;2023-03-26T01:21:37;45.97;;;7.90;;
37527;SDS011;23372;52.050;4.810;2023-03-26T01:24:04;51.77;;;8.33;;
37527;SDS011;23372;52.050;4.810;2023-03-26T01:31:57;48.33;;;11.03;;
37527;SDS011;23372;52.050;4.810;2023-03-26T01:35:48;48.73;;;8.53;;
37527;SDS011;23372;52.050;4.810;2023-03-26T01:42:51;50.83;;;8.23;;
37527;SDS011;23372;52.050;4.810;2023-03-26T01:45:29;54.13;;;8.13;;
37527;SDS011;23372;52.050;4.810;2023-03-26T01:47:58;49.10;;;8.13;;
37527;SDS011;23372;52.050;4.810;2023-03-26T01:50:23;68.70;;;10.43;;
37527;SDS011;23372;52.050;4.810;2023-03-26T01:52:49;49.37;;;9.23;;
37527;SDS011;23372;52.050;4.810;2023-03-26T01:55:15;54.57;;;8.87;;
37527;SDS011;23372;52.050;4.810;2023-03-26T01:57:56;46.87;;;9.30;;
37527;SDS011;23372;52.050;4.810;2023-03-26T02:00:31;52.10;;;7.47;;
37527;SDS011;23372;52.050;4.810;2023-03-26T02:05:53;46.83;;;6.63;;
37527;SDS011;23372;52.050;4.810;2023-03-26T02:09:02;44.20;;;6.77;;
37527;SDS011;23372;52.050;4.810;2023-03-26T02:11:27;58.23;;;8.90;;
37527;SDS011;23372;52.050;4.810;2023-03-26T02:13:53;41.07;;;6.53;;
37527;SDS011;23372;52.050;4.810;2023-03-26T02:16:19;52.07;;;7.40;;
37527;SDS011;23372;52.050;4.810;2023-03-26T02:18:45;44.87;;;7.67;;
37527;SDS011;23372;52.050;4.810;2023-03-26T02:21:19;53.93;;;7.67;;
37527;SDS011;23372;52.050;4.810;2023-03-26T02:23:50;46.03;;;8.40;;
37527;SDS011;23372;52.050;4.810;2023-03-26T02:26:22;51.30;;;8.67;;
37527;SDS011;23372;52.050;4.810;2023-03-26T02:28:48;52.97;;;11.27;;
37527;SDS011;23372;52.050;4.810;2023-03-26T02:31:13;55.63;;;10.33;;
37527;SDS011;23372;52.050;4.810;2023-03-26T02:33:40;47.53;;;7.20;;
37527;SDS011;23372;52.050;4.810;2023-03-26T02:36:08;51.67;;;10.90;;
37527;SDS011;23372;52.050;4.810;2023-03-26T02:38:38;55.07;;;8.33;;
37527;SDS011;23372;52.050;4.810;2023-03-26T02:41:04;50.70;;;9.87;;
37527;SDS011;23372;52.050;4.810;2023-03-26T02:43:29;67.50;;;10.50;;
37527;SDS011;23372;52.050;4.810;2023-03-26T02:45:55;49.13;;;8.60;;
37527;SDS011;23372;52.050;4.810;2023-03-26T02:48:21;43.53;;;8.00;;
37527;SDS011;23372;52.050;4.810;2023-03-26T02:50:47;42.43;;;9.60;;
37527;SDS011;23372;52.050;4.810;2023-03-26T02:53:14;49.37;;;9.80;;
37527;SDS011;23372;52.050;4.810;2023-03-26T02:55:40;39.17;;;7.17;;
37527;SDS011;23372;52.050;4.810;2023-03-26T02:58:06;41.40;;;7.50;;
37527;SDS011;23372;52.050;4.810;2023-03-26T03:00:32;48.37;;;7.90;;
37527;SDS011;23372;52.050;4.810;2023-03-26T03:02:59;47.17;;;8.17;;
37527;SDS011;23372;52.050;4.810;2023-03-26T03:05:28;45.97;;;8.10;;
37527;SDS011;23372;52.050;4.810;2023-03-26T03:07:55;45.87;;;7.57;;
37527;SDS011;23372;52.050;4.810;2023-03-26T03:10:22;47.10;;;8.30;;
37527;SDS011;23372;52.050;4.810;2023-03-26T03:12:52;42.73;;;9.43;;
37527;SDS011;23372;52.050;4.810;2023-03-26T03:15:18;47.10;;;8.53;;
37527;SDS011;23372;52.050;4.810;2023-03-26T03:17:44;45.00;;;7.73;;
37527;SDS011;23372;52.050;4.810;2023-03-26T03:20:10;51.97;;;9.00;;
37527;SDS011;23372;52.050;4.810;2023-03-26T03:22:36;46.83;;;8.63;;
37527;SDS011;23372;52.050;4.810;2023-03-26T03:25:02;41.47;;;7.80;;
37527;SDS011;23372;52.050;4.810;2023-03-26T03:27:28;50.60;;;8.33;;
37527;SDS011;23372;52.050;4.810;2023-03-26T03:29:54;33.00;;;7.03;;
37527;SDS011;23372;52.050;4.810;2023-03-26T03:32:21;40.23;;;9.00;;
37527;SDS011;23372;52.050;4.810;2023-03-26T03:34:47;49.40;;;7.93;;
37527;SDS011;23372;52.050;4.810;2023-03-26T03:37:14;50.37;;;9.17;;
37527;SDS011;23372;52.050;4.810;2023-03-26T03:39:41;50.50;;;7.53;;
37527;SDS011;23372;52.050;4.810;2023-03-26T03:42:06;42.67;;;8.20;;
37527;SDS011;23372;52.050;4.810;2023-03-26T03:44:32;42.43;;;8.83;;
37527;SDS011;23372;52.050;4.810;2023-03-26T03:46:57;37.23;;;7.63;;
37527;SDS011;23372;52.050;4.810;2023-03-26T03:49:23;49.33;;;8.07;;
37527;SDS011;23372;52.050;4.810;2023-03-26T03:51:48;40.37;;;7.93;;
37527;SDS011;23372;52.050;4.810;2023-03-26T03:54:14;47.37;;;8.30;;
37527;SDS011;23372;52.050;4.810;2023-03-26T03:56:39;51.33;;;8.03;;
37527;SDS011;23372;52.050;4.810;2023-03-26T03:59:05;34.87;;;8.27;;
37527;SDS011;23372;52.050;4.810;2023-03-26T04:01:32;31.53;;;7.67;;
37527;SDS011;23372;52.050;4.810;2023-03-26T04:03:58;48.40;;;8.27;;
37527;SDS011;23372;52.050;4.810;2023-03-26T04:06:24;38.67;;;6.80;;
37527;SDS011;23372;52.050;4.810;2023-03-26T04:08:50;42.50;;;8.33;;
37527;SDS011;23372;52.050;4.810;2023-03-26T04:11:16;40.87;;;8.90;;
37527;SDS011;23372;52.050;4.810;2023-03-26T04:13:42;33.83;;;8.20;;
37527;SDS011;23372;52.050;4.810;2023-03-26T04:16:08;35.77;;;7.37;;
37527;SDS011;23372;52.050;4.810;2023-03-26T04:18:34;29.80;;;6.23;;
37527;SDS011;23372;52.050;4.810;2023-03-26T04:21:01;43.33;;;8.00;;
37527;SDS011;23372;52.050;4.810;2023-03-26T04:23:29;40.50;;;7.80;;
37527;SDS011;23372;52.050;4.810;2023-03-26T04:25:55;33.47;;;6.37;;
37527;SDS011;23372;52.050;4.810;2023-03-26T04:28:29;36.43;;;8.07;;
37527;SDS011;23372;52.050;4.810;2023-03-26T04:31:07;40.87;;;10.07;;
37527;SDS011;23372;52.050;4.810;2023-03-26T04:33:36;35.53;;;7.37;;
37527;SDS011;23372;52.050;4.810;2023-03-26T04:36:03;34.47;;;7.03;;
37527;SDS011;23372;52.050;4.810;2023-03-26T04:38:30;33.43;;;6.40;;
37527;SDS011;23372;52.050;4.810;2023-03-26T04:41:03;41.13;;;6.77;;
37527;SDS011;23372;52.050;4.810;2023-03-26T04:43:31;28.07;;;6.33;;
37527;SDS011;23372;52.050;4.810;2023-03-26T04:45:59;31.60;;;7.00;;
37527;SDS011;23372;52.050;4.810;2023-03-26T04:48:27;33.00;;;7.03;;
37527;SDS011;23372;52.050;4.810;2023-03-26T04:50:54;34.30;;;7.67;;
37527;SDS011;23372;52.050;4.810;2023-03-26T04:53:20;26.63;;;6.13;;
37527;SDS011;23372;52.050;4.810;2023-03-26T04:58:33;30.30;;;6.97;;
37527;SDS011;23372;52.050;4.810;2023-03-26T05:00:59;37.23;;;8.30;;
37527;SDS011;23372;52.050;4.810;2023-03-26T05:03:27;38.00;;;8.40;;
37527;SDS011;23372;52.050;4.810;2023-03-26T05:05:57;33.10;;;7.20;;
37527;SDS011;23372;52.050;4.810;2023-03-26T05:08:23;31.63;;;7.37;;
37527;SDS011;23372;52.050;4.810;2023-03-26T05:10:49;39.03;;;7.50;;
37527;SDS011;23372;52.050;4.810;2023-03-26T05:13:14;31.50;;;8.17;;
37527;SDS011;23372;52.050;4.810;2023-03-26T05:15:40;26.83;;;6.40;;
37527;SDS011;23372;52.050;4.810;2023-03-26T05:18:05;39.93;;;7.30;;
37527;SDS011;23372;52.050;4.810;2023-03-26T05:20:32;29.27;;;7.83;;
37527;SDS011;23372;52.050;4.810;2023-03-26T05:22:58;37.57;;;7.73;;
37527;SDS011;23372;52.050;4.810;2023-03-26T05:25:24;37.47;;;7.47;;
37527;SDS011;23372;52.050;4.810;2023-03-26T05:27:49;35.80;;;7.67;;
37527;SDS011;23372;52.050;4.810;2023-03-26T05:30:16;35.60;;;7.73;;
37527;SDS011;23372;52.050;4.810;2023-03-26T05:32:44;31.53;;;7.90;;
37527;SDS011;23372;52.050;4.810;2023-03-26T05:35:12;34.80;;;7.87;;
37527;SDS011;23372;52.050;4.810;2023-03-26T05:37:40;33.20;;;7.30;;
37527;SDS011;23372;52.050;4.810;2023-03-26T05:40:08;43.87;;;9.03;;
37527;SDS011;23372;52.050;4.810;2023-03-26T05:42:36;37.63;;;8.73;;
37527;SDS011;23372;52.050;4.810;2023-03-26T05:45:02;40.53;;;9.60;;
37527;SDS011;23372;52.050;4.810;2023-03-26T05:47:29;34.53;;;8.90;;
37527;SDS011;23372;52.050;4.810;2023-03-26T05:49:56;49.43;;;10.67;;
37527;SDS011;23372;52.050;4.810;2023-03-26T05:52:21;38.60;;;9.37;;
37527;SDS011;23372;52.050;4.810;2023-03-26T05:54:47;38.47;;;10.07;;
37527;SDS011;23372;52.050;4.810;2023-03-26T05:57:12;39.23;;;10.33;;
37527;SDS011;23372;52.050;4.810;2023-03-26T05:59:38;40.70;;;10.20;;
37527;SDS011;23372;52.050;4.810;2023-03-26T06:02:03;42.27;;;9.67;;
37527;SDS011;23372;52.050;4.810;2023-03-26T06:04:29;44.07;;;10.13;;
37527;SDS011;23372;52.050;4.810;2023-03-26T06:06:55;43.33;;;9.17;;
37527;SDS011;23372;52.050;4.810;2023-03-26T06:09:21;40.47;;;9.07;;
37527;SDS011;23372;52.050;4.810;2023-03-26T06:11:47;42.00;;;8.93;;
37527;SDS011;23372;52.050;4.810;2023-03-26T06:14:13;39.83;;;8.63;;
37527;SDS011;23372;52.050;4.810;2023-03-26T06:16:39;37.90;;;9.80;;
37527;SDS011;23372;52.050;4.810;2023-03-26T06:19:05;43.10;;;11.70;;
37527;SDS011;23372;52.050;4.810;2023-03-26T06:21:30;29.37;;;9.23;;
37527;SDS011;23372;52.050;4.810;2023-03-26T06:23:56;37.13;;;8.80;;
37527;SDS011;23372;52.050;4.810;2023-03-26T06:26:21;31.43;;;8.90;;
37527;SDS011;23372;52.050;4.810;2023-03-26T06:28:47;42.47;;;10.27;;
37527;SDS011;23372;52.050;4.810;2023-03-26T06:31:13;38.10;;;9.43;;
37527;SDS011;23372;52.050;4.810;2023-03-26T06:33:38;41.70;;;10.53;;
37527;SDS011;23372;52.050;4.810;2023-03-26T06:36:04;37.23;;;8.90;;
37527;SDS011;23372;52.050;4.810;2023-03-26T06:38:30;37.73;;;9.23;;
37527;SDS011;23372;52.050;4.810;2023-03-26T06:41:02;35.07;;;10.17;;
37527;SDS011;23372;52.050;4.810;2023-03-26T06:43:29;39.20;;;10.07;;
37527;SDS011;23372;52.050;4.810;2023-03-26T06:45:57;38.83;;;9.23;;
37527;SDS011;23372;52.050;4.810;2023-03-26T06:48:26;30.63;;;9.60;;
37527;SDS011;23372;52.050;4.810;2023-03-26T06:50:52;46.73;;;10.37;;
37527;SDS011;23372;52.050;4.810;2023-03-26T06:53:18;30.37;;;8.50;;
37527;SDS011;23372;52.050;4.810;2023-03-26T06:55:43;35.20;;;8.17;;
37527;SDS011;23372;52.050;4.810;2023-03-26T06:58:12;37.77;;;9.27;;
37527;SDS011;23372;52.050;4.810;2023-03-26T07:00:37;40.20;;;9.27;;
37527;SDS011;23372;52.050;4.810;2023-03-26T07:03:04;34.33;;;9.30;;
37527;SDS011;23372;52.050;4.810;2023-03-26T07:05:30;40.23;;;8.70;;
37527;SDS011;23372;52.050;4.810;2023-03-26T07:07:55;36.27;;;8.63;;
37527;SDS011;23372;52.050;4.810;2023-03-26T07:10:21;44.20;;;10.80;;
37527;SDS011;23372;52.050;4.810;2023-03-26T07:12:47;49.97;;;10.23;;
37527;SDS011;23372;52.050;4.810;2023-03-26T07:15:13;37.70;;;10.50;;
37527;SDS011;23372;52.050;4.810;2023-03-26T07:17:39;37.37;;;9.03;;
37527;SDS011;23372;52.050;4.810;2023-03-26T07:20:05;32.00;;;8.27;;
37527;SDS011;23372;52.050;4.810;2023-03-26T07:22:32;36.17;;;9.13;;
37527;SDS011;23372;52.050;4.810;2023-03-26T07:24:58;33.33;;;8.13;;
37527;SDS011;23372;52.050;4.810;2023-03-26T07:27:43;36.77;;;9.80;;
37527;SDS011;23372;52.050;4.810;2023-03-26T07:30:45;35.97;;;7.77;;
37527;SDS011;23372;52.050;4.810;2023-03-26T07:35:56;39.73;;;9.03;;
37527;SDS011;23372;52.050;4.810;2023-03-26T07:41:11;30.60;;;7.87;;
37527;SDS011;23372;52.050;4.810;2023-03-26T07:43:57;37.47;;;9.00;;
37527;SDS011;23372;52.050;4.810;2023-03-26T07:46:28;35.33;;;8.93;;
37527;SDS011;23372;52.050;4.810;2023-03-26T07:48:56;28.00;;;8.83;;
37527;SDS011;23372;52.050;4.810;2023-03-26T07:51:24;36.40;;;9.57;;
37527;SDS011;23372;52.050;4.810;2023-03-26T07:53:50;31.07;;;9.10;;
37527;SDS011;23372;52.050;4.810;2023-03-26T07:56:16;35.50;;;8.43;;
37527;SDS011;23372;52.050;4.810;2023-03-26T08:10:10;31.80;;;11.30;;
37527;SDS011;23372;52.050;4.810;2023-03-26T08:12:44;38.03;;;13.27;;
37527;SDS011;23372;52.050;4.810;2023-03-26T08:15:23;42.00;;;13.87;;
37527;SDS011;23372;52.050;4.810;2023-03-26T08:20:59;49.07;;;14.83;;
37527;SDS011;23372;52.050;4.810;2023-03-26T08:26:22;46.27;;;15.00;;
37527;SDS011;23372;52.050;4.810;2023-03-26T08:31:47;48.03;;;14.17;;
37527;SDS011;23372;52.050;4.810;2023-03-26T08:34:13;43.23;;;14.40;;
37527;SDS011;23372;52.050;4.810;2023-03-26T08:36:39;41.60;;;16.63;;
37527;SDS011;23372;52.050;4.810;2023-03-26T08:39:05;44.83;;;14.70;;
37527;SDS011;23372;52.050;4.810;2023-03-26T08:44:24;43.37;;;16.73;;
37527;SDS011;23372;52.050;4.810;2023-03-26T08:50:05;43.27;;;14.83;;
37527;SDS011;23372;52.050;4.810;2023-03-26T09:01:26;47.07;;;15.50;;
37527;SDS011;23372;52.050;4.810;2023-03-26T09:04:17;44.97;;;15.93;;
37527;SDS011;23372;52.050;4.810;2023-03-26T09:24:32;20.50;;;8.43;;
37527;SDS011;23372;52.050;4.810;2023-03-26T09:27:37;23.87;;;8.23;;
37527;SDS011;23372;52.050;4.810;2023-03-26T09:38:35;29.40;;;9.17;;
37527;SDS011;23372;52.050;4.810;2023-03-26T09:41:32;15.23;;;8.00;;
37527;SDS011;23372;52.050;4.810;2023-03-26T09:44:16;25.73;;;8.43;;
37527;SDS011;23372;52.050;4.810;2023-03-26T09:47:03;24.43;;;10.17;;
37527;SDS011;23372;52.050;4.810;2023-03-26T10:01:29;24.60;;;10.53;;
37527;SDS011;23372;52.050;4.810;2023-03-26T10:09:52;19.97;;;8.37;;
37527;SDS011;23372;52.050;4.810;2023-03-26T10:12:28;28.10;;;10.30;;
37527;SDS011;23372;52.050;4.810;2023-03-26T10:15:04;21.40;;;8.80;;
37527;SDS011;23372;52.050;4.810;2023-03-26T10:29:38;19.83;;;8.80;;
37527;SDS011;23372;52.050;4.810;2023-03-26T10:32:16;15.33;;;7.50;;
37527;SDS011;23372;52.050;4.810;2023-03-26T10:35:00;28.40;;;11.27;;
37527;SDS011;23372;52.050;4.810;2023-03-26T10:42:54;27.67;;;5.80;;
37527;SDS011;23372;52.050;4.810;2023-03-26T10:45:56;20.33;;;6.23;;
37527;SDS011;23372;52.050;4.810;2023-03-26T10:51:44;22.80;;;4.70;;
37527;SDS011;23372;52.050;4.810;2023-03-26T10:57:05;20.17;;;5.53;;
37527;SDS011;23372;52.050;4.810;2023-03-26T10:59:44;24.30;;;5.67;;
37527;SDS011;23372;52.050;4.810;2023-03-26T11:02:29;20.83;;;4.70;;
37527;SDS011;23372;52.050;4.810;2023-03-26T11:07:47;14.43;;;3.90;;
37527;SDS011;23372;52.050;4.810;2023-03-26T11:10:34;17.77;;;5.23;;
37527;SDS011;23372;52.050;4.810;2023-03-26T11:16:28;22.83;;;4.17;;
37527;SDS011;23372;52.050;4.810;2023-03-26T11:19:01;19.20;;;4.13;;
37527;SDS011;23372;52.050;4.810;2023-03-26T11:21:42;14.17;;;4.13;;
37527;SDS011;23372;52.050;4.810;2023-03-26T11:27:01;20.07;;;4.13;;
37527;SDS011;23372;52.050;4.810;2023-03-26T11:32:46;13.67;;;3.70;;
37527;SDS011;23372;52.050;4.810;2023-03-26T11:35:19;14.80;;;3.50;;
37527;SDS011;23372;52.050;4.810;2023-03-26T11:38:25;16.97;;;3.13;;
37527;SDS011;23372;52.050;4.810;2023-03-26T11:40:57;20.87;;;3.93;;
37527;SDS011;23372;52.050;4.810;2023-03-26T11:43:28;17.40;;;4.30;;
37527;SDS011;23372;52.050;4.810;2023-03-26T11:45:58;18.67;;;3.83;;
37527;SDS011;23372;52.050;4.810;2023-03-26T11:48:32;20.33;;;4.60;;
37527;SDS011;23372;52.050;4.810;2023-03-26T11:51:17;23.03;;;4.43;;
37527;SDS011;23372;52.050;4.810;2023-03-26T11:53:51;26.07;;;4.47;;
37527;SDS011;23372;52.050;4.810;2023-03-26T12:01:27;16.23;;;5.27;;
37527;SDS011;23372;52.050;4.810;2023-03-26T12:04:11;21.50;;;4.63;;
37527;SDS011;23372;52.050;4.810;2023-03-26T12:06:38;23.13;;;5.30;;
37527;SDS011;23372;52.050;4.810;2023-03-26T12:09:14;20.57;;;3.80;;
37527;SDS011;23372;52.050;4.810;2023-03-26T12:11:42;15.70;;;4.63;;
37527;SDS011;23372;52.050;4.810;2023-03-26T12:14:12;21.27;;;6.03;;
37527;SDS011;23372;52.050;4.810;2023-03-26T12:19:26;16.33;;;4.67;;
37527;SDS011;23372;52.050;4.810;2023-03-26T12:22:25;20.17;;;4.27;;
37527;SDS011;23372;52.050;4.810;2023-03-26T12:25:00;17.80;;;3.70;;
37527;SDS011;23372;52.050;4.810;2023-03-26T12:27:35;16.80;;;3.80;;
37527;SDS011;23372;52.050;4.810;2023-03-26T12:30:11;15.83;;;3.60;;
37527;SDS011;23372;52.050;4.810;2023-03-26T12:32:48;15.27;;;3.47;;
37527;SDS011;23372;52.050;4.810;2023-03-26T12:35:16;21.50;;;3.63;;
37527;SDS011;23372;52.050;4.810;2023-03-26T12:37:53;15.70;;;3.00;;
37527;SDS011;23372;52.050;4.810;2023-03-26T12:40:32;15.37;;;3.97;;
37527;SDS011;23372;52.050;4.810;2023-03-26T12:43:01;18.93;;;3.63;;
37527;SDS011;23372;52.050;4.810;2023-03-26T12:45:30;16.37;;;3.47;;
37527;SDS011;23372;52.050;4.810;2023-03-26T12:48:01;19.40;;;3.47;;
37527;SDS011;23372;52.050;4.810;2023-03-26T12:50:31;17.67;;;3.30;;
37527;SDS011;23372;52.050;4.810;2023-03-26T13:07:02;13.50;;;2.80;;
37527;SDS011;23372;52.050;4.810;2023-03-26T13:10:14;21.00;;;2.83;;
37527;SDS011;23372;52.050;4.810;2023-03-26T13:15:28;14.00;;;2.30;;
37527;SDS011;23372;52.050;4.810;2023-03-26T13:21:02;11.97;;;2.30;;
37527;SDS011;23372;52.050;4.810;2023-03-26T13:23:47;9.77;;;2.13;;
37527;SDS011;23372;52.050;4.810;2023-03-26T13:34:35;10.13;;;2.00;;
37527;SDS011;23372;52.050;4.810;2023-03-26T13:43:21;11.53;;;1.80;;
37527;SDS011;23372;52.050;4.810;2023-03-26T13:48:18;12.37;;;2.10;;
37527;SDS011;23372;52.050;4.810;2023-03-26T13:51:03;13.63;;;1.70;;
37527;SDS011;23372;52.050;4.810;2023-03-26T13:53:44;13.20;;;1.73;;
37527;SDS011;23372;52.050;4.810;2023-03-26T13:56:44;15.63;;;2.37;;
37527;SDS011;23372;52.050;4.810;2023-03-26T13:59:21;10.57;;;2.13;;
37527;SDS011;23372;52.050;4.810;2023-03-26T14:01:55;8.30;;;1.57;;
37527;SDS011;23372;52.050;4.810;2023-03-26T14:04:45;10.83;;;2.13;;
37527;SDS011;23372;52.050;4.810;2023-03-26T14:10:16;9.50;;;1.73;;
37527;SDS011;23372;52.050;4.810;2023-03-26T14:26:18;7.00;;;1.43;;
37527;SDS011;23372;52.050;4.810;2023-03-26T14:29:08;13.13;;;2.00;;
37527;SDS011;23372;52.050;4.810;2023-03-26T14:42:45;9.60;;;1.80;;
37527;SDS011;23372;52.050;4.810;2023-03-26T14:45:44;6.77;;;1.70;;
37527;SDS011;23372;52.050;4.810;2023-03-26T14:54:17;16.63;;;1.90;;
37527;SDS011;23372;52.050;4.810;2023-03-26T15:00:00;12.27;;;1.93;;
37527;SDS011;23372;52.050;4.810;2023-03-26T15:03:14;12.70;;;2.37;;
37527;SDS011;23372;52.050;4.810;2023-03-26T15:11:56;7.97;;;1.90;;
37527;SDS011;23372;52.050;4.810;2023-03-26T15:43:15;10.23;;;1.70;;
37527;SDS011;23372;52.050;4.810;2023-03-26T15:53:19;8.53;;;1.37;;
37527;SDS011;23372;52.050;4.810;2023-03-26T16:13:22;9.10;;;1.63;;
37527;SDS011;23372;52.050;4.810;2023-03-26T16:15:49;11.93;;;1.93;;
37527;SDS011;23372;52.050;4.810;2023-03-26T16:18:27;9.90;;;1.87;;
37527;SDS011;23372;52.050;4.810;2023-03-26T16:21:01;6.50;;;1.43;;
37527;SDS011;23372;52.050;4.810;2023-03-26T16:26:22;14.27;;;1.70;;
37527;SDS011;23372;52.050;4.810;2023-03-26T16:31:18;8.77;;;1.43;;
37527;SDS011;23372;52.050;4.810;2023-03-26T16:36:35;8.30;;;2.10;;
37527;SDS011;23372;52.050;4.810;2023-03-26T16:55:15;9.93;;;1.33;;
37527;SDS011;23372;52.050;4.810;2023-03-26T17:06:53;7.90;;;1.63;;
37527;SDS011;23372;52.050;4.810;2023-03-26T17:11:59;6.97;;;1.60;;
37527;SDS011;23372;52.050;4.810;2023-03-26T17:25:03;7.63;;;1.33;;
37527;SDS011;23372;52.050;4.810;2023-03-26T17:41:01;5.27;;;1.27;;
37527;SDS011;23372;52.050;4.810;2023-03-26T17:43:32;10.30;;;1.00;;
37527;SDS011;23372;52.050;4.810;2023-03-26T17:48:41;5.70;;;1.40;;
37527;SDS011;23372;52.050;4.810;2023-03-26T17:51:29;8.30;;;1.67;;
37527;SDS011;23372;52.050;4.810;2023-03-26T17:54:05;5.40;;;1.17;;
37527;SDS011;23372;52.050;4.810;2023-03-26T17:56:38;6.27;;;1.17;;
37527;SDS011;23372;52.050;4.810;2023-03-26T17:59:04;6.27;;;1.43;;
37527;SDS011;23372;52.050;4.810;2023-03-26T18:01:39;9.20;;;1.80;;
37527;SDS011;23372;52.050;4.810;2023-03-26T18:04:10;5.90;;;1.20;;
37527;SDS011;23372;52.050;4.810;2023-03-26T18:07:00;11.00;;;1.90;;
37527;SDS011;23372;52.050;4.810;2023-03-26T18:12:44;3.67;;;1.30;;
37527;SDS011;23372;52.050;4.810;2023-03-26T18:15:20;17.17;;;2.27;;
37527;SDS011;23372;52.050;4.810;2023-03-26T18:18:41;11.10;;;1.90;;
37527;SDS011;23372;52.050;4.810;2023-03-26T18:20:55;10.97;;;2.27;;
37527;SDS011;23372;52.050;4.810;2023-03-26T18:23:25;9.07;;;1.20;;
37527;SDS011;23372;52.050;4.810;2023-03-26T18:26:07;8.38;;;1.83;;
37527;SDS011;23372;52.050;4.810;2023-03-26T18:28:48;9.47;;;1.70;;
37527;SDS011;23372;52.050;4.810;2023-03-26T18:31:18;9.70;;;2.53;;
37527;SDS011;23372;52.050;4.810;2023-03-26T18:33:47;4.63;;;1.20;;
37527;SDS011;23372;52.050;4.810;2023-03-26T18:36:17;3.13;;;1.60;;
37527;SDS011;23372;52.050;4.810;2023-03-26T18:38:44;8.23;;;1.43;;
37527;SDS011;23372;52.050;4.810;2023-03-26T18:41:21;7.83;;;1.43;;
37527;SDS011;23372;52.050;4.810;2023-03-26T18:43:53;13.43;;;1.73;;
37527;SDS011;23372;52.050;4.810;2023-03-26T18:46:19;8.90;;;1.60;;
37527;SDS011;23372;52.050;4.810;2023-03-26T18:48:47;13.30;;;1.77;;
37527;SDS011;23372;52.050;4.810;2023-03-26T18:51:12;15.00;;;1.83;;
37527;SDS011;23372;52.050;4.810;2023-03-26T18:53:50;9.40;;;1.97;;
37527;SDS011;23372;52.050;4.810;2023-03-26T18:58:51;10.57;;;1.50;;
37527;SDS011;23372;52.050;4.810;2023-03-26T19:01:20;13.00;;;1.90;;
37527;SDS011;23372;52.050;4.810;2023-03-26T19:03:46;9.33;;;1.40;;
37527;SDS011;23372;52.050;4.810;2023-03-26T19:06:13;9.37;;;1.73;;
37527;SDS011;23372;52.050;4.810;2023-03-26T19:08:43;8.20;;;1.90;;
37527;SDS011;23372;52.050;4.810;2023-03-26T19:11:10;10.23;;;1.73;;
37527;SDS011;23372;52.050;4.810;2023-03-26T19:13:38;6.80;;;1.50;;
37527;SDS011;23372;52.050;4.810;2023-03-26T19:16:27;9.17;;;1.77;;
37527;SDS011;23372;52.050;4.810;2023-03-26T19:18:57;10.90;;;2.73;;
37527;SDS011;23372;52.050;4.810;2023-03-26T19:21:24;9.47;;;1.67;;
37527;SDS011;23372;52.050;4.810;2023-03-26T19:23:50;8.10;;;1.40;;
37527;SDS011;23372;52.050;4.810;2023-03-26T19:26:17;12.30;;;1.63;;
37527;SDS011;23372;52.050;4.810;2023-03-26T19:28:45;9.57;;;2.87;;
37527;SDS011;23372;52.050;4.810;2023-03-26T19:33:58;11.93;;;1.97;;
37527;SDS011;23372;52.050;4.810;2023-03-26T19:36:26;10.53;;;1.90;;
37527;SDS011;23372;52.050;4.810;2023-03-26T19:38:54;6.20;;;2.07;;
37527;SDS011;23372;52.050;4.810;2023-03-26T19:41:37;6.03;;;1.80;;
37527;SDS011;23372;52.050;4.810;2023-03-26T19:46:51;5.90;;;1.40;;
37527;SDS011;23372;52.050;4.810;2023-03-26T19:49:29;9.27;;;2.60;;
37527;SDS011;23372;52.050;4.810;2023-03-26T19:57:27;7.67;;;2.23;;
37527;SDS011;23372;52.050;4.810;2023-03-26T19:59:53;14.47;;;3.53;;
37527;SDS011;23372;52.050;4.810;2023-03-26T20:02:19;7.57;;;2.53;;
37527;SDS011;23372;52.050;4.810;2023-03-26T20:04:45;7.77;;;1.50;;
37527;SDS011;23372;52.050;4.810;2023-03-26T20:07:16;9.87;;;2.20;;
37527;SDS011;23372;52.050;4.810;2023-03-26T20:09:44;11.33;;;1.50;;
37527;SDS011;23372;52.050;4.810;2023-03-26T20:12:13;8.63;;;1.37;;
37527;SDS011;23372;52.050;4.810;2023-03-26T20:14:39;5.07;;;1.53;;
37527;SDS011;23372;52.050;4.810;2023-03-26T20:17:17;10.83;;;1.80;;
37527;SDS011;23372;52.050;4.810;2023-03-26T20:19:44;7.40;;;1.60;;
37527;SDS011;23372;52.050;4.810;2023-03-26T20:22:17;13.17;;;1.90;;
37527;SDS011;23372;52.050;4.810;2023-03-26T20:24:47;8.50;;;1.50;;
37527;SDS011;23372;52.050;4.810;2023-03-26T20:27:14;8.93;;;2.57;;
37527;SDS011;23372;52.050;4.810;2023-03-26T20:29:40;16.63;;;2.13;;
37527;SDS011;23372;52.050;4.810;2023-03-26T20:32:16;7.40;;;1.50;;
37527;SDS011;23372;52.050;4.810;2023-03-26T20:34:43;12.20;;;1.90;;
37527;SDS011;23372;52.050;4.810;2023-03-26T20:37:12;8.63;;;1.90;;
37527;SDS011;23372;52.050;4.810;2023-03-26T20:39:37;11.07;;;1.57;;
37527;SDS011;23372;52.050;4.810;2023-03-26T20:42:03;5.47;;;1.40;;
37527;SDS011;23372;52.050;4.810;2023-03-26T20:44:29;9.67;;;1.97;;
37527;SDS011;23372;52.050;4.810;2023-03-26T20:46:54;6.90;;;1.60;;
37527;SDS011;23372;52.050;4.810;2023-03-26T20:49:22;14.47;;;1.47;;
37527;SDS011;23372;52.050;4.810;2023-03-26T20:51:49;8.33;;;1.40;;
37527;SDS011;23372;52.050;4.810;2023-03-26T20:54:18;4.87;;;1.60;;
37527;SDS011;23372;52.050;4.810;2023-03-26T20:56:46;9.07;;;1.53;;